Time;durP1;ratioP1;P1;durP2;ratioP2;P2;SDS_P1;SDS_P2;PMS_P1;PMS_P2;Temp;Humidity;BMP_temperature;BMP_pressure;BME280_temperature;BME280_humidity;BME280_pressure;Samples;Min_cycle;Max_cycle;Signal;HPM_P1;HPM_P2
2023/11/13 00:02:02;;;;;;;14.53;12.13;;;;;;;6.33;100.00;100818.81;6085542;28;20241;-69
2023/11/13 00:05:25;;;;;;;14.30;12.90;;;;;;;6.34;100.00;100817.81;6078537;29;20246;-69
2023/11/13 00:08:45;;;;;;;17.27;13.40;;;;;;;6.35;100.00;100811.53;6085627;28;20220;-68
2023/11/13 00:12:08;;;;;;;10.33;9.17;;;;;;;6.36;100.00;100807.03;6082558;29;20615;-68
2023/11/13 00:15:29;;;;;;;13.63;12.23;;;;;;;6.31;100.00;100812.72;6088864;28;20286;-68
2023/11/13 00:18:50;;;;;;;11.87;10.17;;;;;;;6.27;100.00;100807.69;6087252;29;20304;-69
2023/11/13 00:22:12;;;;;;;14.03;12.43;;;;;;;6.24;100.00;100798.06;6083449;28;20233;-69
2023/11/13 00:25:33;;;;;;;11.50;10.30;;;;;;;6.15;100.00;100804.06;6073012;29;20236;-68
2023/11/13 00:28:54;;;;;;;13.00;11.67;;;;;;;6.12;100.00;100817.66;6084672;29;20320;-68
2023/11/13 00:32:15;;;;;;;23.43;11.67;;;;;;;6.03;100.00;100825.50;6078136;29;20240;-69
2023/11/13 00:35:36;;;;;;;11.87;10.63;;;;;;;5.98;100.00;100833.00;6082068;28;20236;-69
2023/11/13 00:38:58;;;;;;;13.33;11.60;;;;;;;6.43;100.00;100827.88;6090185;28;20237;-69
2023/11/13 00:42:20;;;;;;;11.63;10.33;;;;;;;6.07;100.00;100819.81;6074554;29;20237;-68
2023/11/13 00:45:41;;;;;;;12.60;11.37;;;;;;;5.99;100.00;100822.19;6083782;29;20245;-68
2023/11/13 00:49:02;;;;;;;12.60;11.17;;;;;;;5.94;100.00;100827.00;6072094;29;21215;-69
2023/11/13 00:52:23;;;;;;;13.83;12.33;;;;;;;5.90;100.00;100821.97;6081975;28;20320;-68
2023/11/13 00:55:46;;;;;;;16.57;10.90;;;;;;;5.87;100.00;100817.69;6079287;29;21753;-69
2023/11/13 00:59:07;;;;;;;13.73;12.23;;;;;;;5.88;100.00;100823.91;6086585;28;20240;-69
2023/11/13 01:02:28;;;;;;;13.30;10.57;;;;;;;5.91;100.00;100811.16;6079538;29;20244;-68
2023/11/13 01:05:50;;;;;;;14.53;12.97;;;;;;;5.93;100.00;100797.66;6082101;29;20244;-68
2023/11/13 01:09:11;;;;;;;13.07;11.00;;;;;;;5.96;100.00;100816.19;6079148;29;20244;-69
2023/11/13 01:12:34;;;;;;;16.03;11.97;;;;;;;5.89;100.00;100818.44;6080680;29;20292;-68
2023/11/13 01:15:55;;;;;;;14.33;10.80;;;;;;;5.86;100.00;100815.97;6081788;29;20259;-68
2023/11/13 01:19:16;;;;;;;12.13;10.23;;;;;;;5.83;100.00;100812.63;6085578;29;20236;-67
2023/11/13 01:22:37;;;;;;;10.23;9.30;;;;;;;5.85;100.00;100813.41;6077953;29;20233;-69
2023/11/13 01:25:58;;;;;;;12.20;10.67;;;;;;;5.79;100.00;100811.13;6078784;29;20604;-68
2023/11/13 01:29:20;;;;;;;13.33;11.27;;;;;;;5.72;100.00;100807.16;6083072;29;20561;-69
2023/11/13 01:32:41;;;;;;;11.83;10.63;;;;;;;5.70;100.00;100815.31;6084710;29;20225;-68
2023/11/13 01:36:03;;;;;;;11.30;10.30;;;;;;;5.72;100.00;100813.38;6080163;29;20252;-68
2023/11/13 01:39:24;;;;;;;11.47;10.17;;;;;;;5.69;100.00;100813.63;6076648;29;20236;-68
2023/11/13 01:42:45;;;;;;;13.83;10.97;;;;;;;5.68;100.00;100809.22;6075993;29;20233;-69
2023/11/13 01:46:10;;;;;;;12.13;10.83;;;;;;;5.67;100.00;100810.19;6083815;29;20260;-70
2023/11/13 01:49:33;;;;;;;11.63;10.53;;;;;;;5.63;100.00;100804.19;6078048;28;20237;-68
2023/11/13 01:52:54;;;;;;;12.67;11.20;;;;;;;5.62;100.00;100804.28;6085674;29;20318;-67
2023/11/13 01:56:17;;;;;;;16.10;11.50;;;;;;;5.58;100.00;100800.97;6085623;28;20236;-68
2023/11/13 01:59:39;;;;;;;13.97;12.70;;;;;;;5.62;100.00;100804.28;6088065;29;20237;-68
2023/11/13 02:03:05;;;;;;;13.80;10.53;;;;;;;5.65;100.00;100785.38;6084231;29;20236;-68
2023/11/13 02:06:27;;;;;;;16.00;12.40;;;;;;;5.61;100.00;100784.72;6082461;29;20507;-68
2023/11/13 02:09:49;;;;;;;14.43;10.60;;;;;;;5.57;100.00;100777.88;6080514;29;20232;-68
2023/11/13 02:13:11;;;;;;;14.03;10.80;;;;;;;5.56;100.00;100789.53;6085378;28;20224;-68
2023/11/13 02:16:33;;;;;;;12.20;11.07;;;;;;;5.53;100.00;100794.22;6073934;29;20316;-68
2023/11/13 02:19:58;;;;;;;10.53;9.60;;;;;;;5.56;100.00;100802.03;6083337;28;20367;-68
2023/11/13 02:23:20;;;;;;;15.23;11.80;;;;;;;5.48;100.00;100807.06;6085049;29;20240;-67
2023/11/13 02:26:42;;;;;;;12.23;10.93;;;;;;;5.46;100.00;100806.31;6085325;29;20231;-67
2023/11/13 02:30:03;;;;;;;12.13;10.83;;;;;;;5.37;100.00;100813.16;6088958;29;20655;-69
2023/11/13 02:33:23;;;;;;;15.97;13.37;;;;;;;5.37;100.00;100813.16;6090048;28;20248;-68
2023/11/13 02:36:45;;;;;;;12.90;10.67;;;;;;;5.38;100.00;100814.00;6078711;29;20236;-68
2023/11/13 02:40:09;;;;;;;12.10;10.83;;;;;;;5.38;100.00;100817.53;6085259;28;20296;-68
2023/11/13 02:43:30;;;;;;;13.60;12.20;;;;;;;5.40;100.00;100815.59;6057159;29;20252;-67
2023/11/13 02:46:51;;;;;;;14.37;12.93;;;;;;;5.34;100.00;100804.50;6084263;29;20237;-69
2023/11/13 02:50:11;;;;;;;13.53;10.70;;;;;;;5.32;100.00;100798.41;6075923;29;20237;-69
2023/11/13 02:53:32;;;;;;;13.87;11.03;;;;;;;5.27;100.00;100792.50;6090540;28;20253;-68
2023/11/13 02:56:55;;;;;;;14.93;11.23;;;;;;;5.07;100.00;100793.00;6086329;28;20389;-68
2023/11/13 03:00:16;;;;;;;13.60;11.40;;;;;;;5.09;100.00;100804.44;6079225;29;20532;-68
2023/11/13 03:03:38;;;;;;;13.87;12.47;;;;;;;4.90;100.00;100793.28;6095565;28;20236;-67
2023/11/13 03:06:58;;;;;;;12.63;11.00;;;;;;;4.93;100.00;100803.75;6083872;29;20248;-68
2023/11/13 03:10:20;;;;;;;12.43;10.33;;;;;;;4.90;100.00;100806.63;6087247;29;20228;-68
2023/11/13 03:13:42;;;;;;;12.87;11.53;;;;;;;4.94;100.00;100808.13;6087048;29;20236;-68
2023/11/13 03:17:03;;;;;;;14.37;12.17;;;;;;;4.91;100.00;100800.31;6074299;29;20237;-69
2023/11/13 03:20:24;;;;;;;15.93;11.67;;;;;;;4.91;100.00;100794.97;6085194;29;20244;-68
2023/11/13 03:23:45;;;;;;;13.40;12.00;;;;;;;4.84;100.00;100810.53;6090391;29;20245;-69
2023/11/13 03:27:07;;;;;;;15.27;12.20;;;;;;;4.74;100.00;100804.97;6083111;28;20240;-68
2023/11/13 03:30:32;;;;;;;12.10;10.87;;;;;;;4.70;100.00;100803.47;6083218;29;20239;-68
2023/11/13 03:33:54;;;;;;;14.33;12.83;;;;;;;4.84;100.00;100802.53;6086407;29;20336;-68
2023/11/13 03:37:15;;;;;;;16.87;13.10;;;;;;;4.76;100.00;100800.38;6083783;29;20264;-68
2023/11/13 03:40:36;;;;;;;18.40;12.90;;;;;;;4.77;100.00;100804.78;6086929;29;20236;-68
2023/11/13 03:43:59;;;;;;;16.97;12.70;;;;;;;4.76;100.00;100805.72;6071878;28;20245;-68
2023/11/13 03:47:21;;;;;;;14.63;13.03;;;;;;;4.74;100.00;100801.44;6085578;29;20236;-69
2023/11/13 03:50:42;;;;;;;15.93;13.47;;;;;;;4.77;100.00;100803.91;6080053;29;20521;-68
2023/11/13 03:54:03;;;;;;;13.07;11.43;;;;;;;4.67;100.00;100800.97;6086145;29;20505;-68
2023/11/13 03:57:25;;;;;;;13.33;11.87;;;;;;;4.71;100.00;100798.97;6085479;28;20858;-69
2023/11/13 04:04:25;;;;;;;15.13;13.27;;;;;;;4.59;100.00;100800.63;6411113;23;20255;-68
2023/11/13 04:07:46;;;;;;;14.47;13.03;;;;;;;4.66;100.00;100809.09;6134064;28;20354;-68
2023/11/13 04:11:07;;;;;;;14.57;13.07;;;;;;;4.61;100.00;100813.91;6136589;28;20239;-68
2023/11/13 04:14:29;;;;;;;15.60;13.70;;;;;;;4.50;100.00;100808.38;6133367;28;20227;-68
2023/11/13 04:17:51;;;;;;;13.03;11.77;;;;;;;4.45;100.00;100824.69;6129303;28;20235;-68
2023/11/13 04:21:14;;;;;;;14.23;12.67;;;;;;;4.36;100.00;100817.28;6136459;28;20624;-68
2023/11/13 04:24:35;;;;;;;14.63;12.97;;;;;;;4.33;100.00;100798.81;6123406;28;20252;-68
2023/11/13 04:27:57;;;;;;;19.40;15.10;;;;;;;4.32;100.00;100789.06;6110853;28;20323;-68
2023/11/13 04:31:18;;;;;;;25.73;23.07;;;;;;;4.38;100.00;100798.53;6108303;28;20232;-68
2023/11/13 04:34:38;;;;;;;19.70;17.47;;;;;;;4.39;100.00;100801.06;6114084;28;20235;-69
2023/11/13 04:38:01;;;;;;;18.67;13.40;;;;;;;4.38;100.00;100788.69;6109581;28;20318;-68
2023/11/13 04:41:22;;;;;;;15.07;13.33;;;;;;;4.39;100.00;100785.06;6112061;28;20240;-67
2023/11/13 04:44:43;;;;;;;16.70;14.73;;;;;;;4.34;100.00;100781.81;6112219;28;20231;-68
2023/11/13 04:48:04;;;;;;;14.43;11.87;;;;;;;4.23;100.00;100784.34;6112343;28;20609;-68
2023/11/13 04:51:26;;;;;;;14.37;12.17;;;;;;;4.20;100.00;100794.34;6112099;28;20653;-68
2023/11/13 04:54:48;;;;;;;15.23;12.10;;;;;;;4.10;100.00;100791.41;6112255;28;20247;-69
2023/11/13 04:58:09;;;;;;;21.53;17.47;;;;;;;4.27;100.00;100779.66;6110386;28;20243;-68
2023/11/13 05:01:31;;;;;;;14.07;11.63;;;;;;;4.20;100.00;100800.53;6112787;28;20232;-69
2023/11/13 05:04:53;;;;;;;13.23;11.93;;;;;;;4.53;100.00;100786.81;6111901;28;20262;-69
2023/11/13 05:08:14;;;;;;;14.73;12.73;;;;;;;4.19;100.00;100793.50;6112011;28;20248;-68
2023/11/13 05:11:37;;;;;;;11.87;10.67;;;;;;;4.13;100.00;100791.19;6106946;28;20240;-70
2023/11/13 05:18:24;;;;;;;11.63;10.43;;;;;;;4.07;100.00;100808.47;6098133;28;20615;-68
2023/11/13 05:21:45;;;;;;;12.97;11.83;;;;;;;4.02;100.00;100807.91;6109535;28;20232;-68
2023/11/13 05:25:07;;;;;;;12.73;10.83;;;;;;;3.92;100.00;100813.91;6114655;28;20240;-68
2023/11/13 05:28:30;;;;;;;10.73;9.67;;;;;;;4.09;100.00;100811.03;6108341;29;20236;-68
2023/11/13 05:31:51;;;;;;;12.23;10.03;;;;;;;4.18;100.00;100810.44;6119482;28;20352;-68
2023/11/13 05:35:12;;;;;;;12.67;11.37;;;;;;;3.94;100.00;100817.34;6114364;29;21122;-67
2023/11/13 05:42:04;;;;;;;12.50;10.47;;;;;;;3.94;100.00;100788.00;6504987;23;20247;-68
2023/11/13 05:45:27;;;;;;;13.53;10.40;;;;;;;3.90;100.00;100798.00;6134287;28;20860;-68
2023/11/13 05:48:48;;;;;;;10.47;9.43;;;;;;;3.80;100.00;100801.31;6134867;28;20242;-68
2023/11/13 05:52:09;;;;;;;12.00;10.93;;;;;;;3.80;100.00;100793.31;6131016;28;20267;-68
2023/11/13 05:55:30;;;;;;;10.03;9.03;;;;;;;3.98;100.00;100792.19;6137119;28;20231;-68
2023/11/13 05:58:51;;;;;;;10.67;8.90;;;;;;;4.09;100.00;100789.69;6135096;28;20246;-69
2023/11/13 06:02:14;;;;;;;11.70;9.90;;;;;;;3.87;100.00;100795.53;6124905;28;20299;-68
2023/11/13 06:05:34;;;;;;;8.77;7.97;;;;;;;3.79;100.00;100780.97;6135023;28;20247;-68
2023/11/13 06:08:55;;;;;;;10.70;8.77;;;;;;;3.74;100.00;100775.06;6130818;28;20560;-68
2023/11/13 06:12:17;;;;;;;13.50;11.23;;;;;;;3.64;100.00;100780.13;6127080;28;20556;-68
2023/11/13 06:15:40;;;;;;;11.43;10.30;;;;;;;3.69;100.00;100783.34;6128784;28;20239;-68
2023/11/13 06:19:06;;;;;;;11.07;9.97;;;;;;;3.79;100.00;100778.31;6129120;28;20613;-68
2023/11/13 06:22:27;;;;;;;9.77;8.77;;;;;;;3.71;100.00;100772.59;6131788;28;20236;-68
2023/11/13 06:25:48;;;;;;;9.83;8.83;;;;;;;3.62;100.00;100776.69;6136655;28;20242;-69
2023/11/13 06:29:10;;;;;;;9.67;8.73;;;;;;;3.83;100.00;100769.16;6130973;28;20323;-70
2023/11/13 06:32:31;;;;;;;10.37;7.37;;;;;;;3.61;100.00;100766.97;6134733;28;20223;-69
2023/11/13 06:35:54;;;;;;;8.30;7.50;;;;;;;3.64;100.00;100765.91;6130780;28;20263;-69
2023/11/13 06:39:17;;;;;;;9.43;8.40;;;;;;;3.59;100.00;100760.03;6124320;28;20246;-69
2023/11/13 06:42:38;;;;;;;9.93;9.10;;;;;;;3.54;100.00;100767.44;6132654;28;20841;-68
2023/11/13 06:45:59;;;;;;;10.83;9.80;;;;;;;3.35;100.00;100754.41;6125707;28;20244;-69
2023/11/13 06:49:21;;;;;;;10.83;8.73;;;;;;;3.30;100.00;100758.31;6125524;28;20250;-69
2023/11/13 06:52:43;;;;;;;10.87;9.93;;;;;;;3.35;100.00;100758.88;6121234;28;20235;-70
2023/11/13 06:56:06;;;;;;;12.87;10.17;;;;;;;3.33;100.00;100758.97;6130312;28;20231;-69
2023/11/13 06:59:27;;;;;;;12.20;9.83;;;;;;;3.34;100.00;100759.84;6130685;28;20246;-68
2023/11/13 07:02:49;;;;;;;9.87;8.93;;;;;;;3.43;100.00;100768.09;6121319;28;20248;-67
2023/11/13 07:06:11;;;;;;;15.00;10.47;;;;;;;3.41;100.00;100771.81;6115613;28;20325;-67
2023/11/13 07:09:34;;;;;;;13.63;12.23;;;;;;;3.36;100.00;100768.59;6130569;28;20231;-68
2023/11/13 07:12:55;;;;;;;12.37;9.53;;;;;;;3.31;100.00;100765.34;6124446;28;20235;-69
2023/11/13 07:16:15;;;;;;;13.80;10.93;;;;;;;3.31;100.00;100779.50;6127152;28;20224;-69
2023/11/13 07:19:37;;;;;;;11.00;9.90;;;;;;;3.40;100.00;100775.44;6135218;28;20227;-68
2023/11/13 07:22:58;;;;;;;8.77;7.57;;;;;;;3.47;100.00;100785.63;6138512;28;20231;-69
2023/11/13 07:26:20;;;;;;;11.63;10.30;;;;;;;3.50;100.00;100766.78;6133620;28;20251;-68
2023/11/13 07:29:42;;;;;;;10.40;9.20;;;;;;;3.76;100.00;100771.34;6125940;28;20247;-69
2023/11/13 07:33:03;;;;;;;9.83;8.73;;;;;;;3.63;100.00;100770.38;6129876;28;20235;-71
2023/11/13 07:36:24;;;;;;;9.07;8.13;;;;;;;3.63;100.00;100773.06;6127148;28;20232;-69
2023/11/13 07:39:45;;;;;;;11.50;9.30;;;;;;;3.74;100.00;100761.72;6132360;28;20231;-68
2023/11/13 07:43:08;;;;;;;10.53;8.67;;;;;;;3.81;100.00;100744.41;6119427;28;20239;-69
2023/11/13 07:46:30;;;;;;;9.00;8.10;;;;;;;4.02;100.00;100759.91;6131369;28;20240;-68
2023/11/13 07:49:51;;;;;;;11.07;9.13;;;;;;;4.11;100.00;100747.78;6130191;28;20235;-68
2023/11/13 07:53:12;;;;;;;13.17;8.97;;;;;;;4.40;100.00;100741.41;6125648;28;20266;-68
2023/11/13 07:56:35;;;;;;;8.17;7.33;;;;;;;4.04;100.00;100736.66;6132431;28;20231;-70
2023/11/13 07:59:57;;;;;;;7.53;6.80;;;;;;;4.26;100.00;100725.44;6126706;28;20239;-68
2023/11/13 08:03:18;;;;;;;8.97;7.03;;;;;;;4.26;100.00;100729.91;6129733;28;20242;-68
2023/11/13 08:06:39;;;;;;;9.33;8.43;;;;;;;4.29;100.00;100729.72;6128689;28;20234;-69
2023/11/13 08:10:01;;;;;;;8.53;7.13;;;;;;;4.52;100.00;100724.59;6131621;28;20231;-69
2023/11/13 08:13:24;;;;;;;7.07;6.47;;;;;;;4.87;100.00;100719.56;6131313;28;20641;-69
2023/11/13 08:16:46;;;;;;;9.87;7.40;;;;;;;5.23;100.00;100709.03;6124757;28;20236;-69
2023/11/13 08:20:09;;;;;;;11.13;9.13;;;;;;;5.81;100.00;100695.06;6135470;28;20239;-67
2023/11/13 08:23:31;;;;;;;6.07;5.50;;;;;;;5.43;100.00;100700.47;6136948;28;20235;-68
2023/11/13 08:26:54;;;;;;;4.63;4.03;;;;;;;6.17;100.00;100704.94;6136166;28;20326;-68
2023/11/13 08:30:15;;;;;;;6.83;5.77;;;;;;;6.77;100.00;100689.66;6125727;28;20235;-70
2023/11/13 08:33:37;;;;;;;6.63;5.43;;;;;;;9.49;100.00;100689.47;6130602;28;20250;-69
2023/11/13 08:36:58;;;;;;;7.37;5.77;;;;;;;8.05;100.00;100676.69;6135139;28;20242;-69
2023/11/13 08:40:23;;;;;;;7.03;5.37;;;;;;;6.67;100.00;100680.63;6124655;28;20238;-68
2023/11/13 08:43:45;;;;;;;5.07;4.23;;;;;;;6.15;100.00;100677.44;6132091;28;20239;-68
2023/11/13 08:47:06;;;;;;;6.53;5.97;;;;;;;7.81;100.00;100664.41;6126615;28;20244;-70
2023/11/13 08:50:28;;;;;;;6.50;5.47;;;;;;;9.96;100.00;100660.19;6127060;28;20678;-70
2023/11/13 08:53:49;;;;;;;5.80;5.07;;;;;;;10.17;100.00;100652.91;6130241;28;20227;-70
2023/11/13 08:57:11;;;;;;;9.87;6.13;;;;;;;9.25;100.00;100659.31;6129680;28;20704;-69
2023/11/13 09:00:40;;;;;;;5.53;4.70;;;;;;;11.72;100.00;100645.34;6133961;28;20231;-68
2023/11/13 09:04:02;;;;;;;6.43;5.33;;;;;;;11.96;100.00;100648.34;6133252;28;20608;-68
2023/11/13 09:07:24;;;;;;;5.87;5.23;;;;;;;12.20;100.00;100643.22;6135044;28;20230;-68
2023/11/13 09:10:46;;;;;;;7.07;6.37;;;;;;;12.46;100.00;100632.50;6137063;28;20239;-69
2023/11/13 09:14:09;;;;;;;7.87;6.20;;;;;;;10.74;100.00;100644.00;6131470;28;20231;-67
2023/11/13 09:17:30;;;;;;;7.40;5.97;;;;;;;10.32;100.00;100633.50;6140427;28;20231;-70
2023/11/13 09:20:54;;;;;;;7.77;5.80;;;;;;;9.07;100.00;100635.88;6141099;28;20315;-69
2023/11/13 09:24:17;;;;;;;7.63;5.83;;;;;;;8.82;100.00;100646.03;6136273;28;20235;-70
2023/11/13 09:27:38;;;;;;;4.70;4.30;;;;;;;9.75;100.00;100636.03;6142852;28;20235;-69
2023/11/13 09:30:59;;;;;;;7.07;5.33;;;;;;;9.30;100.00;100623.97;6136921;28;20279;-69
2023/11/13 09:34:22;;;;;;;7.20;3.97;;;;;;;8.78;100.00;100616.88;6133163;28;20621;-69
2023/11/13 09:37:43;;;;;;;4.57;4.13;;;;;;;7.95;100.00;100613.13;6133354;28;20234;-69
2023/11/13 09:41:07;;;;;;;4.87;4.33;;;;;;;8.73;100.00;100601.13;6139791;28;20227;-68
2023/11/13 09:44:28;;;;;;;5.83;5.30;;;;;;;9.33;100.00;100577.94;6140725;28;20330;-69
2023/11/13 09:47:50;;;;;;;4.53;3.87;;;;;;;9.17;100.00;100574.91;6135858;28;20235;-69
2023/11/13 09:51:14;;;;;;;4.17;3.57;;;;;;;11.51;100.00;100575.34;6137107;28;20231;-69
2023/11/13 09:54:35;;;;;;;5.27;3.47;;;;;;;10.23;100.00;100574.22;6139440;28;20521;-69
2023/11/13 09:58:00;;;;;;;5.43;3.93;;;;;;;11.76;100.00;100568.44;6133922;28;20235;-68
2023/11/13 10:01:21;;;;;;;3.37;3.17;;;;;;;11.62;100.00;100550.00;6128612;28;20232;-69
2023/11/13 10:04:42;;;;;;;3.47;3.17;;;;;;;10.53;100.00;100548.97;6138223;28;20230;-68
2023/11/13 10:08:03;;;;;;;3.67;3.23;;;;;;;9.93;100.00;100548.22;6136216;28;20227;-69
2023/11/13 10:11:29;;;;;;;5.63;3.77;;;;;;;11.38;100.00;100547.00;6139889;28;20243;-69
2023/11/13 10:15:08;;;;;;;4.93;3.47;;;;;;;12.89;100.00;100539.72;6135789;28;20544;-69
2023/11/13 10:18:28;;;;;;;22.67;4.30;;;;;;;12.60;100.00;100553.56;6125934;28;20361;-69
2023/11/13 10:21:51;;;;;;;4.90;4.23;;;;;;;11.10;100.00;100554.19;6135292;28;20247;-70
2023/11/13 10:25:12;;;;;;;6.37;5.63;;;;;;;13.54;100.00;100542.63;6133172;28;20238;-69
2023/11/13 10:28:37;;;;;;;6.00;5.43;;;;;;;16.61;79.56;100518.38;6133525;28;20231;-70
2023/11/13 10:31:59;;;;;;;5.78;3.45;;;;;;;14.37;89.06;100495.56;6143710;28;20235;-69
2023/11/13 10:35:27;;;;;;;4.57;3.22;;;;;;;13.83;87.98;100500.75;6135943;28;20507;-69
2023/11/13 10:38:51;;;;;;;8.00;4.20;;;;;;;12.26;99.43;100510.19;6133350;28;20241;-68
2023/11/13 10:42:18;;;;;;;4.07;3.77;;;;;;;11.09;100.00;100496.72;6130229;28;20239;-68
2023/11/13 10:45:46;;;;;;;4.97;3.00;;;;;;;13.25;100.00;100492.56;6139732;28;20235;-69
2023/11/13 10:49:12;;;;;;;4.63;4.07;;;;;;;14.43;89.09;100481.31;6135513;28;20257;-68
2023/11/13 10:52:33;;;;;;;5.68;3.92;;;;;;;15.37;87.08;100478.72;6130949;28;20231;-68
2023/11/13 10:55:55;;;;;;;7.72;4.32;;;;;;;16.08;78.59;100469.47;6126759;28;20243;-69
2023/11/13 10:59:17;;;;;;;4.10;3.67;;;;;;;15.62;81.94;100453.16;6132479;28;20756;-70
2023/11/13 11:02:44;;;;;;;8.43;4.53;;;;;;;14.94;87.97;100455.63;6128590;28;20243;-70
2023/11/13 11:06:14;;;;;;;6.10;3.90;;;;;;;14.09;84.27;100458.06;6129351;28;20327;-68
2023/11/13 11:09:36;;;;;;;5.22;4.72;;;;;;;14.75;84.23;100433.47;6119985;28;20227;-69
2023/11/13 11:13:02;;;;;;;9.05;8.13;;;;;;;15.57;85.32;100422.09;6125264;28;20231;-69
2023/11/13 11:16:30;;;;;;;5.00;4.50;;;;;;;17.59;73.08;100405.38;6122932;28;20322;-68
2023/11/13 11:19:59;;;;;;;4.60;4.20;;;;;;;15.56;95.54;100404.94;6119758;28;20231;-70
2023/11/13 11:23:27;;;;;;;5.13;3.88;;;;;;;17.72;74.88;100377.41;6113758;28;20247;-68
2023/11/13 11:26:58;;;;;;;6.07;4.43;;;;;;;18.54;70.77;100364.94;6124166;28;20233;-67
2023/11/13 11:30:32;;;;;;;4.75;4.35;;;;;;;16.43;77.45;100354.56;6128483;28;20240;-66
2023/11/13 11:33:55;;;;;;;5.47;3.92;;;;;;;14.45;87.12;100361.81;6120885;28;20322;-68
2023/11/13 11:37:19;;;;;;;6.30;4.80;;;;;;;14.78;88.87;100355.25;6127225;28;20270;-69
2023/11/13 11:40:44;;;;;;;6.22;4.88;;;;;;;15.81;81.64;100330.34;6137971;28;20223;-68
2023/11/13 11:44:09;;;;;;;6.13;4.03;;;;;;;15.25;84.07;100310.91;6126046;28;20342;-69
2023/11/13 11:47:30;;;;;;;4.90;4.40;;;;;;;15.51;78.27;100295.97;6107034;28;20266;-69
2023/11/13 11:50:57;;;;;;;4.50;3.75;;;;;;;16.20;80.21;100273.03;6125311;28;20227;-68
2023/11/13 11:54:18;;;;;;;4.20;3.80;;;;;;;14.61;84.82;100252.41;6119382;28;20235;-69
2023/11/13 11:57:44;;;;;;;3.92;3.53;;;;;;;12.57;100.00;100246.44;6111061;28;20259;-68
2023/11/13 12:01:08;;;;;;;5.90;5.07;;;;;;;11.86;100.00;100240.56;6111649;28;20626;-71
2023/11/13 12:04:30;;;;;;;4.77;3.87;;;;;;;12.02;100.00;100235.25;6117505;28;20235;-69
2023/11/13 12:07:52;;;;;;;8.70;5.13;;;;;;;11.73;100.00;100234.72;6117275;28;20227;-69
2023/11/13 12:11:14;;;;;;;5.43;3.73;;;;;;;11.19;100.00;100230.44;6120108;28;20331;-69
2023/11/13 12:14:37;;;;;;;6.40;4.90;;;;;;;11.34;100.00;100217.22;6118686;28;20566;-70
2023/11/13 12:17:58;;;;;;;5.37;4.87;;;;;;;11.40;100.00;100210.34;6121211;28;20341;-68
2023/11/13 12:21:19;;;;;;;7.53;4.03;;;;;;;10.82;100.00;100205.50;6129184;28;20247;-69
2023/11/13 12:24:41;;;;;;;6.57;5.20;;;;;;;10.94;100.00;100203.38;6122404;28;20253;-70
2023/11/13 12:28:02;;;;;;;4.27;3.50;;;;;;;10.37;100.00;100194.72;6122426;28;20235;-69
2023/11/13 12:31:25;;;;;;;8.93;5.13;;;;;;;9.70;100.00;100179.91;6104954;28;20248;-68
2023/11/13 12:34:47;;;;;;;5.13;4.63;;;;;;;9.76;100.00;100163.16;6123351;28;20263;-68
2023/11/13 12:38:09;;;;;;;4.43;3.90;;;;;;;9.63;100.00;100142.81;6126085;28;20238;-71
2023/11/13 12:41:30;;;;;;;7.20;4.43;;;;;;;9.41;100.00;100140.50;6116227;28;20258;-70
2023/11/13 12:44:53;;;;;;;8.47;4.00;;;;;;;9.37;100.00;100132.84;6126657;28;20634;-67
2023/11/13 12:48:16;;;;;;;10.67;5.33;;;;;;;9.47;100.00;100120.25;6125564;28;20243;-70
2023/11/13 12:51:38;;;;;;;7.43;4.57;;;;;;;9.16;100.00;100099.94;6117350;28;20326;-69
2023/11/13 12:55:00;;;;;;;4.90;3.27;;;;;;;8.97;100.00;100095.47;6124638;28;20236;-69
2023/11/13 12:58:22;;;;;;;4.80;3.17;;;;;;;8.90;100.00;100097.06;6129641;28;20271;-69
2023/11/13 13:01:45;;;;;;;5.43;3.10;;;;;;;8.85;100.00;100104.69;6122232;28;20524;-69
2023/11/13 13:05:11;;;;;;;2.93;2.53;;;;;;;8.77;100.00;100064.25;6128803;28;20243;-68
2023/11/13 13:08:33;;;;;;;3.53;2.37;;;;;;;8.70;100.00;100052.38;6126761;28;20219;-69
2023/11/13 13:11:57;;;;;;;4.33;2.40;;;;;;;8.52;100.00;100043.38;6131120;28;20246;-68
2023/11/13 13:15:20;;;;;;;4.67;3.13;;;;;;;8.54;100.00;100049.44;6124635;28;20231;-69
2023/11/13 13:18:41;;;;;;;5.37;2.80;;;;;;;8.66;100.00;100040.22;6130545;28;20326;-68
2023/11/13 13:22:05;;;;;;;2.50;2.30;;;;;;;8.62;100.00;100039.69;6127395;28;20318;-69
2023/11/13 13:25:29;;;;;;;4.30;2.77;;;;;;;8.41;100.00;100032.78;6127523;28;20696;-70
2023/11/13 13:28:53;;;;;;;5.57;2.07;;;;;;;8.29;100.00;100020.50;6127986;28;20243;-69
2023/11/13 13:32:13;;;;;;;3.10;2.13;;;;;;;8.28;100.00;99983.91;6131309;28;20251;-67
2023/11/13 13:35:35;;;;;;;2.33;2.13;;;;;;;8.12;100.00;99965.66;6123482;28;20532;-69
2023/11/13 13:38:58;;;;;;;3.00;2.13;;;;;;;8.11;100.00;99968.50;6131390;28;20318;-67
2023/11/13 13:42:19;;;;;;;2.20;2.00;;;;;;;8.16;100.00;99953.66;6120055;28;20633;-69
2023/11/13 13:45:43;;;;;;;2.10;1.87;;;;;;;8.47;100.00;99916.75;6138395;28;20265;-68
2023/11/13 13:49:05;;;;;;;2.90;2.10;;;;;;;8.39;100.00;99898.66;6130847;28;20228;-72
2023/11/13 13:52:29;;;;;;;2.50;2.07;;;;;;;8.12;100.00;99900.38;6119604;28;20239;-68
2023/11/13 13:55:52;;;;;;;3.60;2.43;;;;;;;8.07;100.00;99874.81;6130546;28;20235;-69
2023/11/13 13:59:14;;;;;;;2.33;1.80;;;;;;;8.09;100.00;99874.72;6139599;28;20235;-69
2023/11/13 14:02:35;;;;;;;3.40;2.43;;;;;;;7.98;100.00;99869.50;6134261;28;20239;-69
2023/11/13 14:05:56;;;;;;;2.50;2.23;;;;;;;7.91;100.00;99873.72;6130869;28;20231;-68
2023/11/13 14:09:17;;;;;;;2.90;2.33;;;;;;;7.86;100.00;99863.44;6137260;28;20244;-69
2023/11/13 14:12:39;;;;;;;4.50;3.10;;;;;;;7.82;100.00;99863.88;6130997;28;20231;-68
2023/11/13 14:16:00;;;;;;;4.60;2.80;;;;;;;7.73;100.00;99835.22;6130228;28;20228;-69
2023/11/13 14:19:21;;;;;;;9.40;2.70;;;;;;;7.73;100.00;99820.00;6132641;28;20235;-68
2023/11/13 14:22:46;;;;;;;6.00;2.70;;;;;;;7.64;100.00;99803.88;6128861;28;20259;-67
2023/11/13 14:26:09;;;;;;;4.30;2.60;;;;;;;7.69;100.00;99807.00;6130765;28;20610;-69
2023/11/13 14:29:33;;;;;;;4.20;3.33;;;;;;;7.38;100.00;99766.13;6135335;28;20235;-69
2023/11/13 14:32:55;;;;;;;3.43;3.03;;;;;;;7.46;100.00;99760.91;6131016;28;20235;-68
2023/11/13 14:36:16;;;;;;;5.83;3.40;;;;;;;7.40;100.00;99742.72;6134972;28;20580;-67
2023/11/13 14:39:38;;;;;;;3.73;3.43;;;;;;;7.34;100.00;99715.63;6128436;28;20228;-68
2023/11/13 14:42:59;;;;;;;4.70;3.90;;;;;;;7.31;100.00;99678.38;6134429;28;20267;-69
2023/11/13 14:46:22;;;;;;;4.97;3.37;;;;;;;7.40;100.00;99683.72;6130866;28;20227;-69
2023/11/13 14:49:43;;;;;;;6.73;3.30;;;;;;;7.46;100.00;99639.38;6132913;28;21285;-69
2023/11/13 14:53:04;;;;;;;5.70;4.10;;;;;;;7.63;100.00;99623.38;6131244;28;20609;-69
2023/11/13 14:56:25;;;;;;;5.30;3.67;;;;;;;7.42;100.00;99638.00;6138685;28;20239;-69
2023/11/13 14:59:46;;;;;;;4.63;4.17;;;;;;;7.60;100.00;99641.59;6138085;28;20321;-68
2023/11/13 15:03:08;;;;;;;5.27;4.10;;;;;;;7.44;100.00;99610.06;6131761;28;20250;-68
2023/11/13 15:06:29;;;;;;;3.77;3.37;;;;;;;8.01;100.00;99624.97;6128504;28;20346;-71
2023/11/13 15:09:50;;;;;;;4.97;4.47;;;;;;;7.50;100.00;99603.25;6125526;28;20235;-70
2023/11/13 15:13:11;;;;;;;4.20;3.80;;;;;;;7.53;100.00;99576.16;6132712;28;20259;-70
2023/11/13 15:16:32;;;;;;;5.27;4.77;;;;;;;7.41;100.00;99555.88;6137088;28;20235;-71
2023/11/13 15:19:55;;;;;;;4.90;3.57;;;;;;;7.24;100.00;99635.22;6134694;28;20231;-71
2023/11/13 15:23:16;;;;;;;5.23;4.67;;;;;;;7.25;100.00;99643.13;6132984;28;20250;-70
2023/11/13 15:26:37;;;;;;;5.80;4.77;;;;;;;7.22;100.00;99629.16;6135501;28;20247;-71
2023/11/13 15:29:58;;;;;;;4.80;4.27;;;;;;;7.26;100.00;99558.19;6125536;28;20235;-71
2023/11/13 15:33:19;;;;;;;5.87;5.03;;;;;;;7.20;100.00;99548.06;6139367;28;20313;-71
2023/11/13 15:36:42;;;;;;;5.47;4.40;;;;;;;7.21;100.00;99565.84;6137585;28;20587;-70
2023/11/13 15:40:08;;;;;;;10.57;6.50;;;;;;;7.09;100.00;99535.69;6131582;28;20235;-70
2023/11/13 15:43:30;;;;;;;5.37;4.87;;;;;;;7.11;100.00;99551.66;6132908;28;20235;-71